createdAt,value
2018-02-15T00:02:20.309Z,8.98
2018-02-15T00:04:47.956Z,8.32
2018-02-15T00:07:15.617Z,9.93
2018-02-15T00:09:43.267Z,9.80
2018-02-15T00:12:11.616Z,10.02
2018-02-15T00:14:40.022Z,9.30
2018-02-15T00:17:07.643Z,9.52
2018-02-15T00:19:35.262Z,9.95
2018-02-15T00:22:02.880Z,9.18
2018-02-15T00:24:30.515Z,9.93
2018-02-15T00:26:58.200Z,9.18
2018-02-15T00:29:25.819Z,9.18
2018-02-15T00:31:54.184Z,9.63
2018-02-15T00:34:22.595Z,9.07
2018-02-15T00:36:50.225Z,9.15
2018-02-15T00:39:17.840Z,9.25
2018-02-15T00:41:45.478Z,9.35
2018-02-15T00:44:13.108Z,9.52
2018-02-15T00:46:40.717Z,9.32
2018-02-15T00:49:08.359Z,10.02
2018-02-15T00:51:36.013Z,9.82
2018-02-15T00:54:04.397Z,9.48
2018-02-15T00:56:32.013Z,9.27
2018-02-15T00:58:59.645Z,9.32
2018-02-15T01:01:27.368Z,8.95
2018-02-15T01:03:55.358Z,9.50
2018-02-15T01:06:22.947Z,9.13
2018-02-15T01:08:50.540Z,10.07
2018-02-15T01:11:18.187Z,10.05
2018-02-15T01:13:46.588Z,10.07
2018-02-15T01:16:15.453Z,8.60
2018-02-15T01:18:43.847Z,9.60
2018-02-15T01:21:12.262Z,8.85
2018-02-15T01:23:39.852Z,9.82
2018-02-15T01:26:07.486Z,10.07
2018-02-15T01:28:35.245Z,9.40
2018-02-15T01:31:03.646Z,9.53
2018-02-15T01:33:31.253Z,9.23
2018-02-15T01:35:58.877Z,9.70
2018-02-15T01:38:26.539Z,9.85
2018-02-15T01:40:54.144Z,10.35
2018-02-15T01:43:21.764Z,9.48
2018-02-15T01:45:50.159Z,9.38
2018-02-15T01:48:17.741Z,9.53
2018-02-15T01:50:46.148Z,9.05
2018-02-15T01:53:13.751Z,9.07
2018-02-15T01:55:42.128Z,9.38
2018-02-15T01:58:10.543Z,8.68
2018-02-15T02:00:38.184Z,9.00
2018-02-15T02:03:06.535Z,8.70
2018-02-15T02:05:34.162Z,9.82
2018-02-15T02:08:01.749Z,9.15
2018-02-15T02:10:29.390Z,10.30
2018-02-15T02:12:56.998Z,8.73
2018-02-15T02:15:24.607Z,8.85
2018-02-15T02:17:52.219Z,9.20
2018-02-15T02:20:19.840Z,7.95
2018-02-15T02:22:48.243Z,10.07
2018-02-15T02:25:15.869Z,8.93
2018-02-15T02:27:43.897Z,8.63
2018-02-15T02:30:12.257Z,9.00
2018-02-15T02:32:39.877Z,8.77
2018-02-15T02:35:07.496Z,9.90
2018-02-15T02:37:35.219Z,8.95
2018-02-15T02:40:03.150Z,7.65
2018-02-15T02:42:31.541Z,9.70
2018-02-15T02:44:59.921Z,7.72
2018-02-15T02:47:27.598Z,9.15
2018-02-15T02:49:56.017Z,8.15
2018-02-15T02:52:23.622Z,8.98
2018-02-15T02:54:51.213Z,9.15
2018-02-15T02:57:18.851Z,8.85
2018-02-15T02:59:46.456Z,9.10
2018-02-15T03:02:14.078Z,8.07
2018-02-15T03:04:41.674Z,9.50
2018-02-15T03:07:10.285Z,9.57
2018-02-15T03:09:37.887Z,8.95
2018-02-15T03:12:05.939Z,9.80
2018-02-15T03:14:34.323Z,9.82
2018-02-15T03:17:02.268Z,9.15
2018-02-15T03:19:29.919Z,10.18
2018-02-15T03:21:58.292Z,8.30
2018-02-15T03:24:26.367Z,9.35
2018-02-15T03:26:54.033Z,8.88
2018-02-15T03:29:21.649Z,9.18
2018-02-15T03:31:49.276Z,9.55
2018-02-15T03:34:17.689Z,9.15
2018-02-15T03:36:45.350Z,10.25
2018-02-15T03:39:12.964Z,9.77
2018-02-15T03:41:40.608Z,10.82
2018-02-15T03:44:08.237Z,10.97
2018-02-15T03:46:35.870Z,10.23
2018-02-15T03:49:03.471Z,10.60
2018-02-15T03:51:31.854Z,10.95
2018-02-15T03:53:59.492Z,10.90
2018-02-15T03:56:27.148Z,11.40
2018-02-15T03:58:54.735Z,8.85
2018-02-15T04:01:22.316Z,10.73
2018-02-15T04:03:50.731Z,10.18
2018-02-15T04:06:18.375Z,10.77
2018-02-15T04:08:45.972Z,9.63
2018-02-15T04:11:13.584Z,10.73
2018-02-15T04:13:41.992Z,9.70
2018-02-15T04:16:09.701Z,9.50
2018-02-15T04:18:37.300Z,8.98
2018-02-15T04:21:05.696Z,10.45
2018-02-15T04:23:34.083Z,9.25
2018-02-15T04:26:01.696Z,8.53
2018-02-15T04:28:29.328Z,8.95
2018-02-15T04:30:56.931Z,8.85
2018-02-15T04:33:24.585Z,9.68
2018-02-15T04:35:52.197Z,9.07
2018-02-15T04:38:20.921Z,9.07
2018-02-15T04:40:48.530Z,9.55
2018-02-15T04:43:16.137Z,9.55
2018-02-15T04:45:43.776Z,9.02
2018-02-15T04:48:11.519Z,10.18
2018-02-15T04:50:39.665Z,9.73
2018-02-15T04:53:07.294Z,9.60
2018-02-15T04:55:34.979Z,8.83
2018-02-15T04:58:02.619Z,10.00
2018-02-15T05:00:30.241Z,10.20
2018-02-15T05:02:57.867Z,9.20
2018-02-15T05:05:26.250Z,9.75
2018-02-15T05:07:54.646Z,10.32
2018-02-15T05:10:22.308Z,10.23
2018-02-15T05:12:49.964Z,11.45
2018-02-15T05:15:18.376Z,10.00
2018-02-15T05:17:46.017Z,9.47
2018-02-15T05:20:14.393Z,10.10
2018-02-15T05:22:43.132Z,9.57
2018-02-15T05:25:10.747Z,10.25
2018-02-15T05:27:39.119Z,10.95
2018-02-15T05:30:06.776Z,10.10
2018-02-15T05:32:34.393Z,10.02
2018-02-15T05:35:02.051Z,10.15
2018-02-15T05:37:30.412Z,9.23
2018-02-15T05:39:58.114Z,9.32
2018-02-15T05:42:25.751Z,10.55
2018-02-15T05:44:54.215Z,11.05
2018-02-15T05:47:21.851Z,10.23
2018-02-15T05:49:49.561Z,10.48
2018-02-15T05:52:17.616Z,10.60
2018-02-15T05:54:45.267Z,10.43
2018-02-15T05:57:12.899Z,8.77
2018-02-15T05:59:40.744Z,9.32
2018-02-15T06:02:08.754Z,9.77
2018-02-15T06:04:37.281Z,7.82
2018-02-15T06:07:05.725Z,10.40
2018-02-15T06:09:33.865Z,9.63
2018-02-15T06:12:01.471Z,10.57
2018-02-15T06:14:29.257Z,9.65
2018-02-15T06:16:56.895Z,9.25
2018-02-15T06:19:24.524Z,10.70
2018-02-15T06:21:52.331Z,9.23
2018-02-15T06:24:20.263Z,9.95
2018-02-15T06:26:48.800Z,10.00
2018-02-15T06:29:16.575Z,9.00
2018-02-15T06:31:44.642Z,9.52
2018-02-15T06:34:12.422Z,9.30
2018-02-15T06:36:40.195Z,8.43
2018-02-15T06:39:08.301Z,8.38
2018-02-15T06:41:36.054Z,9.30
2018-02-15T06:44:03.794Z,9.53
2018-02-15T06:46:32.320Z,8.83
2018-02-15T06:49:00.090Z,9.85
2018-02-15T06:51:27.891Z,8.57
2018-02-15T06:53:55.688Z,9.70
2018-02-15T06:56:24.380Z,9.73
2018-02-15T06:58:52.120Z,9.15
2018-02-15T07:01:19.902Z,9.93
2018-02-15T07:03:48.404Z,8.98
2018-02-15T07:06:16.149Z,9.27
2018-02-15T07:08:44.034Z,8.70
2018-02-15T07:11:11.858Z,10.00
2018-02-15T07:13:39.630Z,9.13
2018-02-15T07:16:07.383Z,9.90
2018-02-15T07:18:35.149Z,8.93
2018-02-15T07:21:02.940Z,9.07
2018-02-15T07:23:30.727Z,9.65
2018-02-15T07:25:58.547Z,6.07
2018-02-15T07:28:26.341Z,9.57
2018-02-15T07:30:54.093Z,9.63
2018-02-15T07:33:21.959Z,9.35
2018-02-15T07:35:49.709Z,10.57
2018-02-15T07:38:17.500Z,8.97
2018-02-15T07:40:45.264Z,9.90
2018-02-15T07:43:13.801Z,10.63
2018-02-15T07:45:41.555Z,9.60
2018-02-15T07:48:09.321Z,9.80
2018-02-15T07:50:37.100Z,10.48
2018-02-15T07:53:04.919Z,9.70
2018-02-15T07:55:32.740Z,9.95
2018-02-15T07:58:00.496Z,8.38
2018-02-15T08:00:28.237Z,9.38
2018-02-15T08:02:56.012Z,9.82
2018-02-15T08:05:23.756Z,9.85
2018-02-15T08:07:51.504Z,9.27
2018-02-15T08:10:20.018Z,9.30
2018-02-15T08:12:47.836Z,9.93
2018-02-15T08:15:15.594Z,10.47
2018-02-15T08:17:43.410Z,9.90
2018-02-15T08:20:11.250Z,10.38
2018-02-15T08:22:39.065Z,9.20
2018-02-15T08:25:06.874Z,7.68
2018-02-15T08:27:34.636Z,9.98
2018-02-15T08:30:02.409Z,9.18
2018-02-15T08:32:30.403Z,9.40
2018-02-15T08:34:58.200Z,10.40
2018-02-15T08:37:25.994Z,9.63
2018-02-15T08:39:53.848Z,9.82
2018-02-15T08:42:22.550Z,10.63
2018-02-15T08:44:50.302Z,9.55
2018-02-15T08:47:18.827Z,10.13
2018-02-15T08:49:46.600Z,10.05
2018-02-15T08:52:14.426Z,9.25
2018-02-15T08:54:42.964Z,9.75
2018-02-15T08:57:10.710Z,10.38
2018-02-15T08:59:38.472Z,9.18
2018-02-15T09:02:06.305Z,10.00
2018-02-15T09:04:34.055Z,9.52
2018-02-15T09:07:01.815Z,9.48
2018-02-15T09:09:29.623Z,9.05
2018-02-15T09:11:57.368Z,10.13
2018-02-15T09:14:25.203Z,10.70
2018-02-15T09:16:52.971Z,9.63
2018-02-15T09:19:21.475Z,10.13
2018-02-15T09:21:49.572Z,9.63
2018-02-15T09:24:17.364Z,10.18
2018-02-15T09:26:45.118Z,10.18
2018-02-15T09:29:13.042Z,10.68
2018-02-15T09:31:40.843Z,11.15
2018-02-15T09:34:08.592Z,11.45
2018-02-15T09:36:36.414Z,10.50
2018-02-15T09:39:04.227Z,10.32
2018-02-15T09:41:32.000Z,10.45
2018-02-15T09:43:59.728Z,10.43
2018-02-15T09:46:27.480Z,9.83
2018-02-15T09:48:55.250Z,10.63
2018-02-15T09:51:23.064Z,9.97
2018-02-15T09:53:51.607Z,9.98
2018-02-15T09:56:19.367Z,9.93
2018-02-15T09:58:47.164Z,10.30
2018-02-15T10:01:14.986Z,10.40
2018-02-15T10:03:42.762Z,11.12
2018-02-15T10:06:10.558Z,11.07
2018-02-15T10:08:39.212Z,10.25
2018-02-15T10:11:07.029Z,9.57
2018-02-15T10:13:35.110Z,10.45
2018-02-15T10:16:02.897Z,10.35
2018-02-15T10:18:31.452Z,11.05
2018-02-15T10:20:59.283Z,9.57
2018-02-15T10:23:27.053Z,10.82
2018-02-15T10:25:54.822Z,9.93
2018-02-15T10:28:22.639Z,10.43
2018-02-15T10:30:50.417Z,9.60
2018-02-15T10:33:18.246Z,10.52
2018-02-15T10:35:46.092Z,9.63
2018-02-15T10:38:13.860Z,9.70
2018-02-15T10:40:41.681Z,11.98
2018-02-15T10:43:09.479Z,11.02
2018-02-15T10:45:37.248Z,11.25
2018-02-15T10:48:05.816Z,9.82
2018-02-15T10:50:33.609Z,10.25
2018-02-15T10:53:01.412Z,9.60
2018-02-15T10:55:29.226Z,10.38
2018-02-15T10:57:57.039Z,10.80
2018-02-15T11:00:30.564Z,10.63
2018-02-15T11:03:03.988Z,10.63
2018-02-15T11:05:40.658Z,9.60
2018-02-15T11:08:08.465Z,10.10
2018-02-15T11:10:36.996Z,10.50
2018-02-15T11:13:04.783Z,10.63
2018-02-15T11:15:32.616Z,10.38
2018-02-15T11:18:00.383Z,9.48
2018-02-15T11:20:28.166Z,9.15
2018-02-15T11:22:55.979Z,9.75
2018-02-15T11:25:23.784Z,9.77
2018-02-15T11:27:51.553Z,9.18
2018-02-15T11:30:19.376Z,9.57
2018-02-15T11:32:47.769Z,9.75
2018-02-15T11:35:15.597Z,10.38
2018-02-15T11:37:43.365Z,9.20
2018-02-15T11:40:11.146Z,9.18
2018-02-15T11:42:38.974Z,9.23
2018-02-15T11:45:07.530Z,9.73
2018-02-15T11:47:35.302Z,8.93
2018-02-15T11:50:03.172Z,9.55
2018-02-15T11:52:30.955Z,9.57
2018-02-15T11:54:58.773Z,8.85
2018-02-15T11:57:27.307Z,9.10
2018-02-15T11:59:55.078Z,9.50
2018-02-15T12:02:22.877Z,9.52
2018-02-15T12:04:50.681Z,9.43
2018-02-15T12:07:18.445Z,8.30
2018-02-15T12:09:46.283Z,8.75
2018-02-15T12:12:14.825Z,9.60
2018-02-15T12:14:42.642Z,9.27
2018-02-15T12:17:10.421Z,9.00
2018-02-15T12:19:38.956Z,9.52
2018-02-15T12:22:06.827Z,9.65
2018-02-15T12:24:34.598Z,8.85
2018-02-15T12:27:02.368Z,9.13
2018-02-15T12:29:30.571Z,9.48
2018-02-15T12:31:58.436Z,9.30
2018-02-15T12:34:26.202Z,9.13
2018-02-15T12:36:54.002Z,9.50
2018-02-15T12:39:21.868Z,10.27
2018-02-15T12:41:50.496Z,8.88
2018-02-15T12:44:18.271Z,10.07
2018-02-15T12:46:45.867Z,9.77
2018-02-15T12:49:13.473Z,9.15
2018-02-15T12:51:41.119Z,9.43
2018-02-15T12:54:08.724Z,9.23
2018-02-15T12:56:36.313Z,9.55
2018-02-15T12:59:03.924Z,9.00
2018-02-15T13:01:31.507Z,8.55
2018-02-15T13:03:59.119Z,8.65
2018-02-15T13:06:26.748Z,9.75
2018-02-15T13:08:54.353Z,9.30
2018-02-15T13:11:21.958Z,9.00
2018-02-15T13:13:49.758Z,8.65
2018-02-15T13:16:29.127Z,9.43
2018-02-15T13:19:08.393Z,9.27
2018-02-15T13:21:35.996Z,9.13
2018-02-15T13:24:03.592Z,9.07
2018-02-15T13:26:31.230Z,9.65
2018-02-15T13:28:58.799Z,9.68
2018-02-15T13:31:26.410Z,9.45
2018-02-15T13:33:54.786Z,9.63
2018-02-15T13:36:23.122Z,10.43
2018-02-15T13:38:51.083Z,9.80
2018-02-15T13:41:18.654Z,9.65
2018-02-15T13:43:46.253Z,9.48
2018-02-15T13:46:13.841Z,9.63
2018-02-15T13:48:41.451Z,10.55
2018-02-15T13:51:09.058Z,9.10
2018-02-15T13:53:36.702Z,8.77
2018-02-15T13:56:04.561Z,9.80
2018-02-15T13:58:32.171Z,9.40
2018-02-15T14:00:59.759Z,8.93
2018-02-15T14:03:27.372Z,9.00
2018-02-15T14:05:54.987Z,8.85
2018-02-15T14:08:23.378Z,10.27
2018-02-15T14:10:50.946Z,9.33
2018-02-15T14:13:18.553Z,9.73
2018-02-15T14:15:46.162Z,9.15
2018-02-15T14:18:14.499Z,9.35
2018-02-15T14:20:42.108Z,9.52
2018-02-15T14:23:10.507Z,9.63
2018-02-15T14:25:38.117Z,8.98
2018-02-15T14:28:05.884Z,9.02
2018-02-15T14:30:33.506Z,9.00
2018-02-15T14:33:01.124Z,9.18
2018-02-15T14:35:28.769Z,10.32
2018-02-15T14:37:56.347Z,9.75
2018-02-15T14:40:24.281Z,9.43
2018-02-15T14:42:51.948Z,9.80
2018-02-15T14:45:19.813Z,10.00
2018-02-15T14:47:47.418Z,9.63
2018-02-15T14:50:15.051Z,9.70
2018-02-15T14:52:42.692Z,9.55
2018-02-15T14:55:10.288Z,9.27
2018-02-15T14:57:37.921Z,10.30
2018-02-15T15:00:05.508Z,9.43
2018-02-15T15:02:33.194Z,9.20
2018-02-15T15:05:00.811Z,9.95
2018-02-15T15:07:29.169Z,9.43
2018-02-15T15:09:56.815Z,10.10
2018-02-15T15:12:24.692Z,9.32
2018-02-15T15:14:52.344Z,10.32
2018-02-15T15:17:20.732Z,10.13
2018-02-15T15:19:48.480Z,10.48
2018-02-15T15:22:16.085Z,10.43
2018-02-15T15:24:43.665Z,10.60
2018-02-15T15:27:11.286Z,10.20
2018-02-15T15:29:38.919Z,10.50
2018-02-15T15:32:06.687Z,10.50
2018-02-15T15:34:35.077Z,10.55
2018-02-15T15:37:02.940Z,10.30
2018-02-15T15:39:30.639Z,10.57
2018-02-15T15:41:58.418Z,10.23
2018-02-15T15:44:27.054Z,10.48
2018-02-15T15:46:54.668Z,11.05
2018-02-15T15:49:22.282Z,11.12
2018-02-15T15:51:49.889Z,10.10
2018-02-15T15:54:17.521Z,10.82
2018-02-15T15:56:45.884Z,10.32
2018-02-15T15:59:13.761Z,10.52
2018-02-15T16:01:41.353Z,10.07
2018-02-15T16:04:08.918Z,11.03
2018-02-15T16:06:36.539Z,11.50
2018-02-15T16:09:04.105Z,10.23
2018-02-15T16:11:31.811Z,11.50
2018-02-15T16:13:59.557Z,10.50
2018-02-15T16:16:27.152Z,10.80
2018-02-15T16:18:54.778Z,10.67
2018-02-15T16:21:22.541Z,11.20
2018-02-15T16:23:50.147Z,10.98
2018-02-15T16:26:17.742Z,10.68
2018-02-15T16:28:45.501Z,10.30
2018-02-15T16:31:13.127Z,10.40
2018-02-15T16:33:40.718Z,11.80
2018-02-15T16:36:08.311Z,10.57
2018-02-15T16:38:36.270Z,10.77
2018-02-15T16:41:04.061Z,10.27
2018-02-15T16:43:31.644Z,10.20
2018-02-15T16:45:59.263Z,10.00
2018-02-15T16:48:26.876Z,10.27
2018-02-15T16:50:54.664Z,11.10
2018-02-15T16:53:22.259Z,10.73
2018-02-15T16:55:49.891Z,10.43
2018-02-15T16:58:17.526Z,10.77
2018-02-15T17:00:45.127Z,10.60
2018-02-15T17:03:12.692Z,10.80
2018-02-15T17:05:40.282Z,10.73
2018-02-15T17:08:10.197Z,10.60
2018-02-15T17:10:38.574Z,10.00
2018-02-15T17:13:06.942Z,10.60
2018-02-15T17:15:34.551Z,10.05
2018-02-15T17:18:02.156Z,10.07
2018-02-15T17:20:30.148Z,10.43
2018-02-15T17:22:58.050Z,11.70
2018-02-15T17:25:26.406Z,10.27
2018-02-15T17:27:54.810Z,10.40
2018-02-15T17:30:23.207Z,10.05
2018-02-15T17:32:50.830Z,9.65
2018-02-15T17:35:19.283Z,10.32
2018-02-15T17:37:46.885Z,10.23
2018-02-15T17:40:14.473Z,9.45
2018-02-15T17:42:42.856Z,9.35
2018-02-15T17:45:11.208Z,9.10
2018-02-15T17:47:39.609Z,9.93
2018-02-15T17:50:07.956Z,9.50
2018-02-15T17:52:35.565Z,9.30
2018-02-15T17:55:03.891Z,8.50
2018-02-15T17:57:31.531Z,9.70
2018-02-15T17:59:59.324Z,8.73
2018-02-15T18:02:26.892Z,8.50
2018-02-15T18:04:54.540Z,8.48
2018-02-15T18:07:22.178Z,9.20
2018-02-15T18:09:50.581Z,8.18
2018-02-15T18:12:18.941Z,8.38
2018-02-15T18:14:46.560Z,8.50
2018-02-15T18:17:14.223Z,8.25
2018-02-15T18:19:42.657Z,8.20
2018-02-15T18:22:10.271Z,8.37
2018-02-15T18:24:37.880Z,8.55
2018-02-15T18:27:05.451Z,8.00
2018-02-15T18:29:33.856Z,8.13
2018-02-15T18:32:01.480Z,7.97
2018-02-15T18:34:29.100Z,6.93
2018-02-15T18:36:56.740Z,7.70
2018-02-15T18:39:24.377Z,7.85
2018-02-15T18:41:51.975Z,7.95
2018-02-15T18:44:20.367Z,7.85
2018-02-15T18:46:48.710Z,7.23
2018-02-15T18:49:16.310Z,7.45
2018-02-15T18:51:44.676Z,7.22
2018-02-15T18:54:12.277Z,7.18
2018-02-15T18:56:39.899Z,7.75
2018-02-15T18:59:07.527Z,7.90
2018-02-15T19:01:35.979Z,7.57
2018-02-15T19:04:03.592Z,7.60
2018-02-15T19:06:31.184Z,7.30
2018-02-15T19:08:58.773Z,6.93
2018-02-15T19:11:27.166Z,7.50
2018-02-15T19:13:55.919Z,7.00
2018-02-15T19:16:23.564Z,7.63
2018-02-15T19:18:51.833Z,7.43
2018-02-15T19:21:19.475Z,6.87
2018-02-15T19:23:47.097Z,7.57
2018-02-15T19:26:14.736Z,7.40
2018-02-15T19:28:42.373Z,7.65
2018-02-15T19:31:11.045Z,6.72
2018-02-15T19:33:39.000Z,7.32
2018-02-15T19:36:06.608Z,7.30
2018-02-15T19:38:34.200Z,6.93
2018-02-15T19:41:01.938Z,6.90
2018-02-15T19:43:29.541Z,8.13
2018-02-15T19:45:57.120Z,7.78
2018-02-15T19:48:24.773Z,8.18
2018-02-15T19:50:52.402Z,7.78
2018-02-15T19:53:20.021Z,7.32
2018-02-15T19:55:47.930Z,7.93
2018-02-15T19:58:15.615Z,7.53
2018-02-15T20:00:43.210Z,7.30
2018-02-15T20:03:12.414Z,8.00
2018-02-15T20:05:40.020Z,8.13
2018-02-15T20:08:08.730Z,8.40
2018-02-15T20:10:38.328Z,7.80
2018-02-15T20:13:05.921Z,8.68
2018-02-15T20:15:41.027Z,8.50
2018-02-15T20:18:08.644Z,7.20
2018-02-15T20:20:36.271Z,8.77
2018-02-15T20:23:04.873Z,8.23
2018-02-15T20:25:32.491Z,8.70
2018-02-15T20:28:05.765Z,8.55
2018-02-15T20:30:33.389Z,8.30
2018-02-15T20:33:01.739Z,8.17
2018-02-15T20:35:29.319Z,7.97
2018-02-15T20:38:02.676Z,8.10
2018-02-15T20:40:37.796Z,8.50
2018-02-15T20:43:06.147Z,8.00
2018-02-15T20:45:33.768Z,8.90
2018-02-15T20:48:01.412Z,8.68
2018-02-15T20:50:34.750Z,8.02
2018-02-15T20:53:08.135Z,8.55
2018-02-15T20:55:41.473Z,8.10
2018-02-15T20:58:10.501Z,8.00
2018-02-15T21:00:38.181Z,8.25
2018-02-15T21:03:05.734Z,8.88
2018-02-15T21:05:33.344Z,8.20
2018-02-15T21:08:00.925Z,7.57
2018-02-15T21:10:28.528Z,8.23
2018-02-15T21:12:57.036Z,8.13
2018-02-15T21:15:24.634Z,7.53
2018-02-15T21:17:52.248Z,8.05
2018-02-15T21:20:19.840Z,7.57
2018-02-15T21:22:47.451Z,8.07
2018-02-15T21:25:15.141Z,7.28
2018-02-15T21:27:43.498Z,8.82
2018-02-15T21:30:11.120Z,8.45
2018-02-15T21:32:40.239Z,7.47
2018-02-15T21:35:07.849Z,7.50
2018-02-15T21:37:36.258Z,7.65
2018-02-15T21:40:03.961Z,8.10
2018-02-15T21:42:31.751Z,7.75
2018-02-15T21:44:59.321Z,8.25
2018-02-15T21:47:26.901Z,8.15
2018-02-15T21:49:55.306Z,8.13
2018-02-15T21:52:23.426Z,7.75
2018-02-15T21:54:51.038Z,7.72
2018-02-15T21:57:19.733Z,8.27
2018-02-15T21:59:47.364Z,8.20
2018-02-15T22:02:15.000Z,7.93
2018-02-15T22:04:42.602Z,8.05
2018-02-15T22:07:10.954Z,8.02
2018-02-15T22:09:38.560Z,8.10
2018-02-15T22:12:06.177Z,7.87
2018-02-15T22:14:34.586Z,7.40
2018-02-15T22:17:02.216Z,7.28
2018-02-15T22:19:29.844Z,8.25
2018-02-15T22:21:58.377Z,8.03
2018-02-15T22:24:26.043Z,8.15
2018-02-15T22:26:53.634Z,8.45
2018-02-15T22:29:21.243Z,8.57
2018-02-15T22:31:48.871Z,8.07
2018-02-15T22:34:16.481Z,8.10
2018-02-15T22:36:44.070Z,9.00
2018-02-15T22:39:11.684Z,8.35
2018-02-15T22:41:39.345Z,7.82
2018-02-15T22:44:06.943Z,8.70
2018-02-15T22:46:34.564Z,8.43
2018-02-15T22:49:03.229Z,8.67
2018-02-15T22:51:30.880Z,7.90
2018-02-15T22:53:58.448Z,8.00
2018-02-15T22:56:26.072Z,8.48
2018-02-15T22:58:53.694Z,8.35
2018-02-15T23:01:22.311Z,7.65
2018-02-15T23:03:49.896Z,8.48
2018-02-15T23:06:18.252Z,8.38
2018-02-15T23:08:45.886Z,8.93
2018-02-15T23:11:13.643Z,8.07
2018-02-15T23:13:42.132Z,8.35
2018-02-15T23:16:10.436Z,8.03
2018-02-15T23:18:38.150Z,8.90
2018-02-15T23:21:05.773Z,8.88
2018-02-15T23:23:33.401Z,8.43
2018-02-15T23:26:01.763Z,8.82
2018-02-15T23:28:30.116Z,8.40
2018-02-15T23:30:57.725Z,7.90
2018-02-15T23:33:26.063Z,8.23
2018-02-15T23:35:53.673Z,8.10
2018-02-15T23:38:22.044Z,8.98
2018-02-15T23:40:50.329Z,8.50
2018-02-15T23:43:17.900Z,8.90
2018-02-15T23:45:46.246Z,9.18
2018-02-15T23:48:14.199Z,8.63
2018-02-15T23:50:41.781Z,8.50
2018-02-15T23:53:09.344Z,8.27
2018-02-15T23:55:36.952Z,8.18
2018-02-15T23:58:04.559Z,8.38
